Time;durP1;ratioP1;P1;durP2;ratioP2;P2;SDS_P1;SDS_P2;PMS_P1;PMS_P2;Temp;Humidity;BMP_temperature;BMP_pressure;BME280_temperature;BME280_humidity;BME280_pressure;Samples;Min_cycle;Max_cycle;Signal;HPM_P1;HPM_P2
2022/01/23 00:00:44;;;;;;;10.68;5.68;;;;;;;;;;5079185;28;20437;-76
2022/01/23 00:03:17;;;;;;;12.33;5.97;;;;;;;;;;5084123;28;20415;-76
2022/01/23 00:05:44;;;;;;;14.30;6.43;;;;;;;;;;5052123;28;20913;-76
2022/01/23 00:08:13;;;;;;;13.60;6.45;;;;;;;;;;5086107;28;20428;-77
2022/01/23 00:10:39;;;;;;;11.38;6.03;;;;;;;;;;5081851;28;20508;-77
2022/01/23 00:13:09;;;;;;;13.82;6.22;;;;;;;;;;5083408;28;20420;-76
2022/01/23 00:18:20;;;;;;;14.32;6.93;;;;;;;;;;5086404;28;20845;-76
2022/01/23 00:20:47;;;;;;;13.35;6.53;;;;;;;;;;5066968;28;20830;-76
2022/01/23 00:23:15;;;;;;;14.02;6.63;;;;;;;;;;5099084;28;20939;-77
2022/01/23 00:31:11;;;;;;;15.88;7.38;;;;;;;;;;5083199;28;20460;-77
2022/01/23 00:33:37;;;;;;;17.10;7.60;;;;;;;;;;5086071;28;20762;-77
2022/01/23 00:36:03;;;;;;;15.93;7.07;;;;;;;;;;5093670;28;20446;-77
2022/01/23 00:38:29;;;;;;;14.40;7.20;;;;;;;;;;5053678;28;20527;-77
2022/01/23 00:40:55;;;;;;;15.25;7.63;;;;;;;;;;5072349;28;20913;-77
2022/01/23 00:43:30;;;;;;;18.33;8.07;;;;;;;;;;5070965;28;20420;-77
2022/01/23 00:49:01;;;;;;;19.98;7.70;;;;;;;;;;5084930;28;20766;-77
2022/01/23 00:51:29;;;;;;;17.20;7.55;;;;;;;;;;5072166;28;20422;-76
2022/01/23 00:53:56;;;;;;;18.55;7.85;;;;;;;;;;5090071;28;20935;-77
2022/01/23 00:56:22;;;;;;;18.95;8.32;;;;;;;;;;5087398;28;20894;-77
2022/01/23 00:58:48;;;;;;;21.48;7.93;;;;;;;;;;5075722;28;20499;-77
2022/01/23 01:01:14;;;;;;;21.25;8.40;;;;;;;;;;5081530;28;20463;-76
2022/01/23 01:03:41;;;;;;;18.55;7.30;;;;;;;;;;5108832;27;20494;-76
2022/01/23 01:06:07;;;;;;;17.75;7.90;;;;;;;;;;5068505;28;20426;-77
2022/01/23 01:08:33;;;;;;;18.95;7.53;;;;;;;;;;5084452;28;20417;-76
2022/01/23 01:12:04;;;;;;;16.27;7.80;;;;;;;;;;5087529;28;20931;-77
2022/01/23 01:32:55;;;;;;;17.23;7.22;;;;;;;;;;5078380;28;20427;-77
2022/01/23 01:35:29;;;;;;;14.82;7.53;;;;;;;;;;5081573;28;20435;-77
2022/01/23 01:37:55;;;;;;;19.13;7.57;;;;;;;;;;5090395;28;20989;-76
2022/01/23 01:40:22;;;;;;;17.07;8.00;;;;;;;;;;5088500;28;20497;-77
2022/01/23 01:42:48;;;;;;;16.63;7.70;;;;;;;;;;5071768;28;20758;-77
2022/01/23 01:45:20;;;;;;;17.25;7.60;;;;;;;;;;5086616;28;20419;-77
2022/01/23 01:47:50;;;;;;;16.13;7.57;;;;;;;;;;5076310;28;20504;-76
2022/01/23 01:50:16;;;;;;;18.67;7.83;;;;;;;;;;5090963;28;20505;-77
2022/01/23 01:52:42;;;;;;;21.42;8.35;;;;;;;;;;5072329;28;20492;-77
2022/01/23 01:55:11;;;;;;;18.52;7.78;;;;;;;;;;5071114;28;20527;-77
2022/01/23 01:57:50;;;;;;;18.70;8.05;;;;;;;;;;5085640;28;20430;-76
2022/01/23 02:08:16;;;;;;;21.35;8.85;;;;;;;;;;5070303;28;20414;-76
2022/01/23 02:08:30;;;;;;;18.65;8.90;;;;;;;;;;5079774;28;20421;-77
2022/01/23 02:11:10;;;;;;;20.65;9.00;;;6.30;99.90;;;;;;5088751;28;20413;-77
2022/01/23 02:13:46;;;;;;;24.90;9.23;;;;;;;;;;5084753;28;20461;-77
2022/01/23 02:51:24;;;;;;;23.67;10.57;;;;;;;;;;5121786;27;20486;-77
2022/01/23 02:54:25;;;;;;;32.15;17.77;;;;;;;;;;5079354;28;20742;-76
2022/01/23 02:56:55;;;;;;;26.38;10.65;;;;;;;;;;5090454;28;20434;-77
2022/01/23 03:02:08;;;;;;;21.55;10.48;;;6.40;99.90;;;;;;5085299;28;20422;-76
2022/01/23 03:04:36;;;;;;;21.00;10.50;;;;;;;;;;5056111;28;20482;-76
2022/01/23 03:09:55;;;;;;;22.08;10.00;;;;;;;;;;5082399;28;20425;-76
2022/01/23 03:15:42;;;;;;;22.83;10.48;;;;;;;;;;5081565;28;20417;-77
2022/01/23 03:26:17;;;;;;;20.33;10.68;;;;;;;;;;5080415;28;20497;-76
2022/01/23 03:29:15;;;;;;;24.02;11.05;;;;;;;;;;5062997;28;20434;-76
2022/01/23 03:31:57;;;;;;;23.17;11.40;;;;;;;;;;5059280;28;20495;-77
2022/01/23 03:34:25;;;;;;;21.05;10.60;;;;;;;;;;5075108;28;20759;-77
2022/01/23 03:36:52;;;;;;;20.90;10.77;;;;;;;;;;5087653;28;20788;-77
2022/01/23 03:39:18;;;;;;;22.50;11.27;;;;;;;;;;5086863;28;20781;-77
2022/01/23 03:41:45;;;;;;;22.85;11.38;;;;;;;;;;5062637;28;20424;-77
2022/01/23 03:44:13;;;;;;;28.20;11.65;;;;;;;;;;5070470;28;20417;-77
2022/01/23 03:49:33;;;;;;;23.65;11.27;;;;;;;;;;5087478;28;21198;-77
2022/01/23 03:52:00;;;;;;;24.75;11.75;;;;;;;;;;5084564;28;20425;-77
2022/01/23 03:54:27;;;;;;;21.80;9.75;;;;;;;;;;5070002;28;20911;-77
2022/01/23 03:56:54;;;;;;;20.33;9.77;;;;;;;;;;5070480;28;20440;-77
2022/01/23 03:59:20;;;;;;;22.92;10.05;;;;;;;;;;5079501;28;20429;-77
2022/01/23 04:01:46;;;;;;;22.75;10.27;;;;;;;;;;5077958;28;20412;-78
2022/01/23 04:07:08;;;;;;;24.80;11.55;;;;;;;;;;5069471;28;20414;-76
2022/01/23 04:09:35;;;;;;;33.95;14.93;;;;;;;;;;5070906;28;20421;-76
2022/01/23 04:12:02;;;;;;;22.50;10.77;;;;;;;;;;5085309;28;20406;-77
2022/01/23 04:14:30;;;;;;;20.83;10.65;;;;;;;;;;5063878;28;20495;-77
2022/01/23 05:00:15;;;;;;;18.75;9.40;;;;;;;;;;5072894;28;20419;-77
2022/01/23 05:03:18;;;;;;;18.40;9.20;;;;;;;;;;5086212;28;20414;-77
2022/01/23 05:05:32;;;;;;;19.00;9.50;;;;;;;;;;5088841;28;20418;-77
2022/01/23 05:08:01;;;;;;;18.48;9.13;;;;;;;;;;5090717;28;20404;-77
2022/01/23 05:10:27;;;;;;;19.20;9.17;;;;;;;;;;5089484;28;20421;-77
2022/01/23 05:12:53;;;;;;;20.20;8.98;;;;;;;;;;5085532;28;20450;-77
2022/01/23 05:15:19;;;;;;;18.42;9.10;;;;;;;;;;5087259;28;20419;-77
2022/01/23 05:17:45;;;;;;;20.08;9.10;;;;;;;;;;5087779;28;20421;-77
2022/01/23 05:20:14;;;;;;;24.65;9.05;;;;;;;;;;5072111;28;20417;-77
2022/01/23 05:22:49;;;;;;;15.67;8.10;;;;;;;;;;5087993;28;20552;-77
2022/01/23 05:25:25;;;;;;;17.58;8.13;;;;;;;;;;5071248;28;20417;-77
2022/01/23 05:27:53;;;;;;;15.38;7.80;;;;;;;;;;5087899;28;20486;-76
2022/01/23 05:30:20;;;;;;;18.63;8.25;;;;;;;;;;5069160;28;20424;-77
2022/01/23 05:32:46;;;;;;;22.55;10.77;;;;;;;;;;5087060;28;20429;-77
2022/01/23 05:35:14;;;;;;;22.42;10.38;;;6.20;99.90;;;;;;5064575;28;20419;-77
2022/01/23 05:37:40;;;;;;;21.67;11.10;;;;;;;;;;5069679;28;20501;-77
2022/01/23 05:40:09;;;;;;;24.60;11.02;;;;;;;;;;5088563;28;20923;-77
2022/01/23 05:42:36;;;;;;;27.30;11.98;;;;;;;;;;5085991;28;20829;-77
2022/01/23 05:45:02;;;;;;;23.58;11.10;;;;;;;;;;5094195;27;20418;-77
2022/01/23 05:47:28;;;;;;;23.90;11.18;;;;;;;;;;5088123;28;20887;-77
2022/01/23 05:49:54;;;;;;;23.30;10.77;;;;;;;;;;5088393;28;20841;-77
2022/01/23 05:52:20;;;;;;;23.95;10.75;;;;;;;;;;5056412;28;20410;-77
2022/01/23 05:54:46;;;;;;;20.88;10.35;;;;;;;;;;5066940;28;20415;-77
2022/01/23 05:57:12;;;;;;;26.02;11.32;;;;;;;;;;5072657;28;20446;-77
2022/01/23 05:59:38;;;;;;;23.70;11.20;;;;;;;;;;5087871;28;20423;-77
2022/01/23 06:02:05;;;;;;;22.38;10.57;;;;;;;;;;5100460;28;20577;-77
2022/01/23 06:04:31;;;;;;;27.33;11.80;;;;;;;;;;5072962;28;20880;-77
2022/01/23 06:06:58;;;;;;;27.77;11.98;;;;;;;;;;5071089;28;20433;-77
2022/01/23 06:09:25;;;;;;;30.90;11.48;;;;;;;;;;5070678;28;20418;-77
2022/01/23 06:11:51;;;;;;;30.52;11.80;;;;;;;;;;5086915;28;20502;-77
2022/01/23 06:14:18;;;;;;;30.20;12.77;;;;;;;;;;5086660;28;20434;-77
2022/01/23 06:16:44;;;;;;;32.47;12.70;;;;;;;;;;5108391;27;20416;-77
2022/01/23 06:19:10;;;;;;;31.20;12.10;;;;;;;;;;5085261;28;20463;-77
2022/01/23 06:21:36;;;;;;;27.33;11.73;;;;;;;;;;5088182;28;20406;-78
2022/01/23 06:24:09;;;;;;;33.35;12.63;;;;;;;;;;5090905;28;20431;-77
2022/01/23 06:26:38;;;;;;;39.42;13.50;;;;;;;;;;5086575;28;21000;-78
2022/01/23 06:29:04;;;;;;;31.98;12.63;;;;;;;;;;5068908;28;20433;-77
2022/01/23 06:31:32;;;;;;;35.78;12.57;;;6.60;99.90;;;;;;5077245;28;20423;-77
2022/01/23 06:33:58;;;;;;;41.35;12.30;;;;;;;;;;5085387;28;20451;-77
2022/01/23 06:36:24;;;;;;;47.10;13.70;;;;;;;;;;5083494;28;20915;-78
2022/01/23 06:38:50;;;;;;;86.55;16.17;;;;;;;;;;5076888;28;20421;-78
2022/01/23 06:41:16;;;;;;;56.65;13.32;;;;;;;;;;5088037;28;20755;-77
2022/01/23 06:43:42;;;;;;;81.10;14.10;;;;;;;;;;5079135;28;20507;-78
2022/01/23 06:46:08;;;;;;;59.38;13.98;;;;;;;;;;5071137;28;20451;-78
2022/01/23 06:48:34;;;;;;;73.37;13.80;;;;;;;;;;5085198;28;20921;-77
2022/01/23 06:51:01;;;;;;;99.68;14.55;;;;;;;;;;5076083;28;20546;-77
2022/01/23 06:53:27;;;;;;;85.63;14.88;;;;;;;;;;5076857;28;20423;-77
2022/01/23 06:55:53;;;;;;;184.45;18.55;;;;;;;;;;5097747;28;20448;-77
2022/01/23 06:58:19;;;;;;;216.07;19.90;;;;;;;;;;5097573;28;20573;-78
2022/01/23 07:00:45;;;;;;;114.23;14.87;;;;;;;;;;5080356;28;20506;-78
2022/01/23 07:03:12;;;;;;;104.32;14.70;;;;;;;;;;5085483;28;20421;-78
2022/01/23 07:05:38;;;;;;;94.05;14.13;;;;;;;;;;5116869;27;21050;-79
2022/01/23 07:08:05;;;;;;;84.13;14.93;;;;;;;;;;5070809;28;21083;-78
2022/01/23 07:10:31;;;;;;;252.35;22.08;;;;;;;;;;5086239;28;20422;-79
2022/01/23 07:12:57;;;;;;;99.82;13.43;;;;;;;;;;5078380;28;20435;-78
2022/01/23 07:15:23;;;;;;;102.88;14.18;;;;;;;;;;5078799;28;20494;-78
2022/01/23 07:17:51;;;;;;;186.20;18.40;;;6.50;99.90;;;;;;5080222;28;20417;-79
2022/01/23 07:20:17;;;;;;;139.48;16.75;;;;;;;;;;5084247;28;20449;-79
2022/01/23 07:22:43;;;;;;;69.55;13.55;;;;;;;;;;5084327;28;21014;-78
2022/01/23 07:25:09;;;;;;;57.55;12.52;;;;;;;;;;5086056;28;20909;-79
2022/01/23 07:27:41;;;;;;;24.25;9.98;;;;;;;;;;5079986;28;20481;-79
2022/01/23 07:30:10;;;;;;;139.75;15.18;;;;;;;;;;5076722;28;20981;-79
2022/01/23 07:32:36;;;;;;;50.42;10.82;;;;;;;;;;5112140;28;20445;-79
2022/01/23 07:35:02;;;;;;;86.78;13.38;;;;;;;;;;5087308;28;20447;-77
2022/01/23 07:37:28;;;;;;;132.53;17.13;;;;;;;;;;5085861;28;20595;-77
2022/01/23 07:39:54;;;;;;;355.10;29.65;;;;;;;;;;5083307;28;20418;-78
2022/01/23 07:42:20;;;;;;;25.80;9.60;;;;;;;;;;5069808;28;20502;-78
2022/01/23 07:44:46;;;;;;;36.88;10.63;;;;;;;;;;5063639;28;20431;-78
2022/01/23 07:47:13;;;;;;;31.33;12.02;;;;;;;;;;5083977;28;20446;-76
2022/01/23 07:49:39;;;;;;;122.40;17.58;;;;;;;;;;5067846;28;20567;-78
2022/01/23 07:52:05;;;;;;;83.38;14.65;;;;;;;;;;5085542;28;20764;-78
2022/01/23 07:54:32;;;;;;;25.02;10.20;;;;;;;;;;5069579;28;20866;-78
2022/01/23 07:56:58;;;;;;;60.47;11.70;;;;;;;;;;5087792;28;20444;-78
2022/01/23 07:59:25;;;;;;;86.15;14.82;;;;;;;;;;5054654;28;20431;-79
2022/01/23 08:01:51;;;;;;;47.03;13.70;;;;;;;;;;5080845;28;20863;-78
2022/01/23 08:04:17;;;;;;;31.10;11.77;;;;;;;;;;5083806;28;20459;-77
2022/01/23 08:06:46;;;;;;;20.77;10.35;;;;;;;;;;5091933;28;20418;-78
2022/01/23 08:09:12;;;;;;;17.67;8.75;;;;;;;;;;5070883;28;20770;-78
2022/01/23 08:11:38;;;;;;;17.05;8.68;;;;;;;;;;5117533;27;20424;-78
2022/01/23 08:14:04;;;;;;;59.42;11.23;;;;;;;;;;5089364;28;20944;-78
2022/01/23 08:16:31;;;;;;;21.90;9.20;;;;;;;;;;5068610;28;20730;-78
2022/01/23 08:18:57;;;;;;;20.93;10.80;;;;;;;;;;5093020;28;20841;-79
2022/01/23 08:21:23;;;;;;;16.65;9.13;;;;;;;;;;5089263;28;20807;-78
2022/01/23 08:23:52;;;;;;;16.52;9.40;;;;;;;;;;5054421;28;20417;-78
2022/01/23 08:26:19;;;;;;;16.80;8.50;;;;;;;;;;5073626;28;20781;-79
2022/01/23 08:28:50;;;;;;;15.07;8.25;;;;;;;;;;5082755;28;20423;-78
2022/01/23 08:31:16;;;;;;;267.25;30.38;;;;;;;;;;5087873;28;20418;-78
2022/01/23 08:33:43;;;;;;;15.77;9.80;;;;;;;;;;5087967;28;20431;-78
2022/01/23 08:36:09;;;;;;;13.30;7.15;;;;;;;;;;5067217;28;20526;-77
2022/01/23 08:38:35;;;;;;;13.32;8.15;;;;;;;;;;5090568;28;20709;-78
2022/01/23 08:43:49;;;;;;;14.32;8.98;;;;;;;;;;5091387;28;20469;-77
2022/01/23 08:46:15;;;;;;;18.17;10.02;;;;;;;;;;5072895;28;20454;-78
2022/01/23 08:48:42;;;;;;;16.00;8.10;;;;;;;;;;5089428;28;20530;-78
2022/01/23 08:51:09;;;;;;;13.80;8.07;;;;;;;;;;5075779;28;20778;-78
2022/01/23 08:53:35;;;;;;;13.95;7.72;;;;;;;;;;5090520;28;20422;-78
2022/01/23 08:56:01;;;;;;;15.05;8.43;;;;;;;;;;5113476;27;20948;-80
2022/01/23 08:58:27;;;;;;;15.05;9.65;;;;;;;;;;5071684;28;20770;-79
2022/01/23 09:00:53;;;;;;;14.88;9.20;;;;;;;;;;5070208;28;20535;-78
2022/01/23 09:03:19;;;;;;;17.17;11.95;;;;;;;;;;5072210;28;20739;-76
2022/01/23 09:05:45;;;;;;;18.48;12.85;;;;;;;;;;5060772;28;20474;-77
2022/01/23 09:08:11;;;;;;;12.30;7.85;;;;;;;;;;5066365;28;20419;-77
2022/01/23 09:10:43;;;;;;;13.68;8.27;;;;;;;;;;5084556;28;20406;-77
2022/01/23 09:13:16;;;;;;;17.67;8.32;;;;;;;;;;5064011;28;20909;-78
2022/01/23 09:15:44;;;;;;;11.30;6.45;;;;;;;;;;5080250;28;20907;-78
2022/01/23 09:18:10;;;;;;;10.27;6.32;;;;;;;;;;5094140;28;20438;-77
2022/01/23 09:20:36;;;;;;;33.80;7.25;;;;;;;;;;5052565;28;20470;-77
2022/01/23 09:23:02;;;;;;;171.00;17.85;;;;;;;;;;5080558;28;20416;-77
2022/01/23 09:25:28;;;;;;;12.07;7.68;;;;;;;;;;5063087;28;20414;-77
2022/01/23 09:27:55;;;;;;;11.50;6.82;;;;;;;;;;5070029;28;20432;-78
2022/01/23 09:30:22;;;;;;;11.00;6.88;;;;;;;;;;5064477;28;20421;-77
2022/01/23 09:32:49;;;;;;;19.27;8.13;;;;;;;;;;5084690;28;20421;-77
2022/01/23 09:35:16;;;;;;;17.48;10.38;;;;;;;;;;5064750;28;20565;-77
2022/01/23 09:37:44;;;;;;;11.35;6.82;;;6.90;99.90;;;;;;5060019;28;20794;-77
2022/01/23 09:40:11;;;;;;;9.60;6.28;;;;;;;;;;5075347;28;20431;-78
2022/01/23 09:42:45;;;;;;;9.27;6.32;;;;;;;;;;5082829;28;20449;-78
2022/01/23 09:45:13;;;;;;;8.38;5.60;;;;;;;;;;5086892;28;20501;-78
2022/01/23 09:47:40;;;;;;;11.40;7.88;;;;;;;;;;5088642;28;20816;-77
2022/01/23 09:50:07;;;;;;;10.10;6.18;;;;;;;;;;5082496;28;20420;-77
2022/01/23 09:52:35;;;;;;;8.63;5.00;;;;;;;;;;5070043;28;20499;-77
2022/01/23 09:55:07;;;;;;;8.80;5.63;;;;;;;;;;5069800;28;20513;-78
2022/01/23 09:57:35;;;;;;;10.60;7.00;;;;;;;;;;5076689;28;20425;-78
2022/01/23 10:00:05;;;;;;;14.73;9.60;;;7.20;99.90;;;;;;5084565;28;20552;-78
2022/01/23 10:02:31;;;;;;;8.02;5.63;;;;;;;;;;5075084;28;20418;-76
2022/01/23 10:04:57;;;;;;;7.67;5.47;;;;;;;;;;5053921;28;20471;-77
2022/01/23 10:07:24;;;;;;;8.80;6.05;;;;;;;;;;5078280;28;20422;-77
2022/01/23 10:09:58;;;;;;;10.55;6.22;;;;;;;;;;5081553;28;20425;-76
2022/01/23 10:12:26;;;;;;;8.73;5.70;;;;;;;;;;5077936;28;20964;-76
2022/01/23 10:14:56;;;;;;;10.10;7.30;;;;;;;;;;5067586;28;20461;-76
2022/01/23 10:17:23;;;;;;;9.20;6.20;;;;;;;;;;5080872;28;20429;-76
2022/01/23 10:19:49;;;;;;;8.90;5.90;;;;;;;;;;5105989;27;20428;-76
2022/01/23 10:22:15;;;;;;;8.68;6.57;;;;;;;;;;5078832;28;20498;-77
2022/01/23 10:24:42;;;;;;;10.20;6.47;;;;;;;;;;5090945;28;20413;-77
2022/01/23 10:27:08;;;;;;;9.05;5.80;;;;;;;;;;5080413;28;20455;-76
2022/01/23 10:29:37;;;;;;;10.13;6.53;;;;;;;;;;5068204;28;20418;-76
2022/01/23 10:32:03;;;;;;;13.00;9.45;;;;;;;;;;5087903;28;20422;-76
2022/01/23 10:34:42;;;;;;;10.87;6.10;;;;;;;;;;5084377;28;20423;-76
2022/01/23 10:37:08;;;;;;;8.30;5.68;;;;;;;;;;5074808;28;20447;-76
2022/01/23 10:39:46;;;;;;;10.02;5.78;;;;;;;;;;5086441;28;20436;-76
2022/01/23 10:47:59;;;;;;;8.02;5.50;;;;;;;;;;5088471;28;20450;-76
2022/01/23 10:50:26;;;;;;;9.13;6.00;;;;;;;;;;5095948;28;20782;-76
2022/01/23 10:52:53;;;;;;;8.18;5.07;;;7.60;99.90;;;;;;5091440;28;20418;-76
2022/01/23 10:55:36;;;;;;;9.13;5.70;;;;;;;;;;5087169;28;20446;-77
2022/01/23 10:58:16;;;;;;;7.07;4.90;;;7.80;99.90;;;;;;5077369;28;21181;-76
2022/01/23 11:00:43;;;;;;;6.22;4.60;;;;;;;;;;5086576;28;20504;-76
2022/01/23 11:03:19;;;;;;;7.18;4.70;;;;;;;;;;5072651;28;20462;-77
2022/01/23 11:05:48;;;;;;;6.88;4.90;;;;;;;;;;5060595;28;20541;-77
2022/01/23 11:08:25;;;;;;;6.70;4.40;;;;;;;;;;5071515;28;20462;-76
2022/01/23 11:10:55;;;;;;;5.82;4.20;;;;;;;;;;5053807;28;20767;-77
2022/01/23 11:19:19;;;;;;;6.28;4.30;;;;;;;;;;5077297;28;20510;-76
2022/01/23 11:21:48;;;;;;;5.57;3.80;;;;;;;;;;5055370;28;20424;-75
2022/01/23 11:24:14;;;;;;;5.78;3.67;;;8.10;99.90;;;;;;5080655;28;20854;-75
2022/01/23 11:26:41;;;;;;;4.95;3.80;;;;;;;;;;5082544;28;20418;-75
2022/01/23 11:29:11;;;;;;;7.18;4.05;;;;;;;;;;5067000;28;20760;-75
2022/01/23 11:31:39;;;;;;;5.97;4.07;;;;;;;;;;5058308;28;20418;-75
2022/01/23 11:34:08;;;;;;;5.50;3.55;;;;;;;;;;5082224;28;20942;-75
2022/01/23 11:36:35;;;;;;;6.03;3.53;;;7.60;99.90;;;;;;5084239;28;20431;-76
2022/01/23 11:39:11;;;;;;;7.20;4.65;;;;;;;;;;5078041;28;20416;-75
2022/01/23 11:55:45;;;;;;;6.15;3.92;;;;;;;;;;5079470;28;20417;-75
2022/01/23 11:58:31;;;;;;;4.55;3.25;;;;;;;;;;5075523;28;20484;-74
2022/01/23 12:01:17;;;;;;;6.13;4.15;;;;;;;;;;5068115;28;20414;-76
2022/01/23 12:04:03;;;;;;;5.97;3.60;;;;;;;;;;5087504;28;20429;-76
2022/01/23 12:06:29;;;;;;;4.90;3.60;;;;;;;;;;5046617;28;20432;-77
2022/01/23 12:09:19;;;;;;;6.13;4.00;;;;;;;;;;5081122;28;20514;-77
2022/01/23 12:12:07;;;;;;;9.13;8.07;;;;;;;;;;5079316;28;20430;-77
2022/01/23 12:17:05;;;;;;;8.02;5.53;;;;;;;;;;5082264;28;20430;-76
2022/01/23 12:19:41;;;;;;;6.78;4.25;;;;;;;;;;5087167;28;20550;-78
2022/01/23 12:22:22;;;;;;;6.50;4.20;;;;;;;;;;5079653;28;20435;-75
2022/01/23 12:24:49;;;;;;;7.00;4.03;;;;;;;;;;5109412;27;20418;-77
2022/01/23 12:27:23;;;;;;;6.68;4.55;;;;;;;;;;5120847;27;20500;-76
2022/01/23 12:29:50;;;;;;;7.43;5.07;;;;;;;;;;5064670;28;20426;-75
2022/01/23 12:32:29;;;;;;;8.63;5.55;;;;;;;;;;5069673;28;20488;-76
2022/01/23 12:34:59;;;;;;;9.30;6.53;;;;;;;;;;5062362;28;20511;-75
2022/01/23 12:37:27;;;;;;;8.10;5.50;;;;;;;;;;5084036;28;20425;-76
2022/01/23 12:40:25;;;;;;;9.30;5.50;;;;;;;;;;5066097;28;20418;-77
2022/01/23 12:43:07;;;;;;;9.35;6.03;;;;;;;;;;5034720;28;20424;-77
2022/01/23 12:45:42;;;;;;;8.43;5.50;;;;;;;;;;5078165;28;20459;-75
2022/01/23 12:48:27;;;;;;;8.88;5.80;;;;;;;;;;5081147;28;20937;-78
2022/01/23 12:50:55;;;;;;;8.80;5.97;;;8.20;99.90;;;;;;5090726;28;20754;-76
2022/01/23 12:53:21;;;;;;;9.10;5.60;;;;;;;;;;5082510;28;20428;-76
2022/01/23 12:56:08;;;;;;;9.93;6.10;;;;;;;;;;5072212;28;20471;-76
2022/01/23 12:58:34;;;;;;;10.18;5.80;;;;;;;;;;5079868;28;20429;-76
2022/01/23 13:01:02;;;;;;;10.63;6.55;;;;;;;;;;5076292;28;20420;-76
2022/01/23 13:03:28;;;;;;;9.55;6.20;;;;;;;;;;5075074;28;20418;-76
2022/01/23 13:05:55;;;;;;;10.17;6.63;;;;;;;;;;5078996;28;20414;-77
2022/01/23 13:08:26;;;;;;;11.95;7.07;;;;;;;;;;5064440;28;20421;-76
2022/01/23 13:13:52;;;;;;;8.57;5.38;;;;;;;;;;5089357;28;20928;-76
2022/01/23 13:16:27;;;;;;;9.07;5.32;;;;;;;;;;5074156;28;20440;-76
2022/01/23 13:30:35;;;;;;;7.90;6.20;;;;;;;;;;5063024;28;20421;-77
2022/01/23 13:32:50;;;;;;;5.90;4.30;;;;;;;;;;5076938;28;20421;-77
2022/01/23 13:35:17;;;;;;;5.82;3.78;;;;;;;;;;5060974;28;20434;-77
2022/01/23 13:37:49;;;;;;;7.00;4.10;;;;;;;;;;5083487;28;20871;-78
2022/01/23 13:40:23;;;;;;;6.93;5.20;;;;;;;;;;5067963;28;20421;-79
2022/01/23 13:59:30;;;;;;;6.15;4.72;;;;;;;;;;5078672;28;20398;-77
2022/01/23 14:04:31;;;;;;;8.98;4.63;;;;;;;;;;5076271;28;20715;-78
2022/01/23 14:06:58;;;;;;;8.65;5.10;;;;;;;;;;5083162;28;20882;-77
2022/01/23 14:09:26;;;;;;;8.45;4.85;;;;;;;;;;5115021;27;20449;-78
2022/01/23 14:11:52;;;;;;;8.95;5.55;;;;;;;;;;5080453;28;20498;-78
2022/01/23 14:14:22;;;;;;;11.43;5.68;;;;;;;;;;5088453;28;20441;-78
2022/01/23 14:16:51;;;;;;;7.10;4.67;;;;;;;;;;5074756;28;21586;-78
2022/01/23 14:19:20;;;;;;;7.13;4.40;;;;;;;;;;5070214;28;20825;-78
2022/01/23 14:21:48;;;;;;;8.73;4.45;;;;;;;;;;5084059;28;20423;-78
2022/01/23 14:24:24;;;;;;;8.70;4.80;;;;;;;;;;5085474;28;20994;-78
2022/01/23 14:27:01;;;;;;;7.45;4.22;;;;;;;;;;5079852;28;20471;-78
2022/01/23 14:29:29;;;;;;;7.75;4.47;;;;;;;;;;5103463;27;20432;-76
2022/01/23 14:32:12;;;;;;;7.82;4.65;;;;;;;;;;5085617;28;20409;-76
2022/01/23 14:34:38;;;;;;;8.65;5.25;;;;;;;;;;5060824;28;20426;-76
2022/01/23 14:37:06;;;;;;;8.02;4.72;;;;;;;;;;5083453;28;20426;-76
2022/01/23 14:39:33;;;;;;;8.55;5.30;;;;;;;;;;5068559;28;20471;-76
2022/01/23 14:42:10;;;;;;;7.78;4.68;;;;;;;;;;5085200;28;20428;-76
2022/01/23 14:44:37;;;;;;;7.72;4.57;;;;;;;;;;5067619;28;20420;-76
2022/01/23 14:47:03;;;;;;;11.43;6.03;;;;;;;;;;5084932;28;20843;-75
2022/01/23 14:49:31;;;;;;;7.57;5.93;;;;;;;;;;5086933;28;20429;-76
2022/01/23 14:51:58;;;;;;;9.48;5.40;;;;;;;;;;5077132;28;20464;-76
2022/01/23 14:54:25;;;;;;;7.53;5.10;;;8.00;99.90;;;;;;5073150;28;20422;-75
2022/01/23 14:56:52;;;;;;;8.25;4.75;;;;;;;;;;5111761;27;20427;-75
2022/01/23 14:59:18;;;;;;;8.25;5.03;;;;;;;;;;5080238;28;20429;-75
2022/01/23 15:01:45;;;;;;;8.45;5.90;;;;;;;;;;5051707;28;20448;-76
2022/01/23 15:04:12;;;;;;;9.00;5.65;;;;;;;;;;5085187;28;20833;-76
2022/01/23 15:06:47;;;;;;;9.60;5.60;;;8.00;99.90;;;;;;5078232;28;20456;-75
2022/01/23 15:09:14;;;;;;;10.37;6.00;;;;;;;;;;5081715;28;20496;-75
2022/01/23 15:11:40;;;;;;;9.98;7.35;;;;;;;;;;5076878;28;20932;-78
2022/01/23 15:14:07;;;;;;;22.83;20.35;;;;;;;;;;5091447;28;20467;-76
2022/01/23 15:16:33;;;;;;;31.75;28.77;;;;;;;;;;5061170;28;20824;-77
2022/01/23 15:19:00;;;;;;;18.92;15.90;;;;;;;;;;5081214;28;20421;-77
2022/01/23 15:21:26;;;;;;;12.93;10.90;;;;;;;;;;5054700;28;20873;-77
2022/01/23 15:23:55;;;;;;;17.02;13.25;;;;;;;;;;5068598;28;20433;-77
2022/01/23 15:26:23;;;;;;;14.90;9.98;;;7.40;99.90;;;;;;5069065;28;20417;-76
2022/01/23 15:28:49;;;;;;;17.73;10.52;;;;;;;;;;5080034;28;20421;-77
2022/01/23 15:31:16;;;;;;;13.03;9.30;;;;;;;;;;5090173;28;20420;-77
2022/01/23 15:33:42;;;;;;;12.13;8.90;;;;;;;;;;5074045;28;20479;-76
2022/01/23 15:36:08;;;;;;;11.55;7.63;;;;;;;;;;5088952;28;20427;-77
2022/01/23 15:38:41;;;;;;;13.95;8.98;;;;;;;;;;5071560;28;20500;-77
2022/01/23 15:41:07;;;;;;;11.52;7.85;;;;;;;;;;5084293;28;20487;-77
2022/01/23 15:43:33;;;;;;;11.32;7.55;;;;;;;;;;5078224;28;20414;-77
2022/01/23 15:45:59;;;;;;;12.30;7.80;;;;;;;;;;5065564;28;20424;-77
2022/01/23 15:48:30;;;;;;;11.75;7.68;;;;;;;;;;5077294;28;20419;-77
2022/01/23 15:50:57;;;;;;;13.30;8.00;;;;;;;;;;5081050;28;20430;-77
2022/01/23 15:53:26;;;;;;;12.32;8.48;;;;;;;;;;5084608;28;20428;-77
2022/01/23 15:55:52;;;;;;;11.40;7.85;;;;;;;;;;5068934;28;20497;-77
2022/01/23 15:58:18;;;;;;;12.02;7.82;;;;;;;;;;5082750;28;20423;-77
2022/01/23 16:00:45;;;;;;;24.40;21.77;;;7.60;99.90;;;;;;5064376;28;20812;-77
2022/01/23 16:03:11;;;;;;;24.98;22.40;;;;;;;;;;5087102;28;20936;-77
2022/01/23 16:05:37;;;;;;;18.42;14.45;;;;;;;;;;5060400;28;20850;-77
2022/01/23 16:08:03;;;;;;;11.60;8.43;;;;;;;;;;5085823;28;20817;-76
2022/01/23 16:10:29;;;;;;;10.97;8.43;;;;;;;;;;5077167;28;20532;-78
2022/01/23 16:12:55;;;;;;;13.70;9.50;;;;;;;;;;5082172;28;20453;-78
2022/01/23 16:15:22;;;;;;;11.63;8.07;;;;;;;;;;5049034;28;20949;-78
2022/01/23 16:17:49;;;;;;;12.43;8.73;;;;;;;;;;5061054;28;20425;-78
2022/01/23 16:20:17;;;;;;;12.30;8.53;;;;;;;;;;5054432;28;20464;-78
2022/01/23 16:22:44;;;;;;;11.55;7.85;;;;;;;;;;5069476;28;20424;-78
2022/01/23 16:25:10;;;;;;;15.32;12.00;;;;;;;;;;5088632;28;20789;-77
2022/01/23 16:27:37;;;;;;;10.95;7.95;;;;;;;;;;5062171;28;20693;-79
2022/01/23 16:30:04;;;;;;;13.30;9.93;;;;;;;;;;5069695;28;21061;-77
2022/01/23 16:32:30;;;;;;;10.85;8.15;;;;;;;;;;5087969;28;20504;-77
2022/01/23 16:34:56;;;;;;;17.03;12.73;;;;;;;;;;5064538;28;20439;-77
2022/01/23 16:37:22;;;;;;;14.20;10.93;;;;;;;;;;5085155;28;20420;-77
2022/01/23 16:39:48;;;;;;;15.98;14.13;;;;;;;;;;5089235;28;20442;-77
2022/01/23 16:42:15;;;;;;;16.77;10.68;;;;;;;;;;5095215;28;20544;-77
2022/01/23 16:44:41;;;;;;;24.73;16.05;;;;;;;;;;5064791;28;20989;-76
2022/01/23 16:47:09;;;;;;;17.60;12.27;;;;;;;;;;5067722;28;20443;-76
2022/01/23 16:49:35;;;;;;;14.60;9.98;;;;;;;;;;5086828;28;20818;-75
2022/01/23 16:52:01;;;;;;;11.30;7.93;;;;;;;;;;5082378;28;20995;-75
2022/01/23 16:54:27;;;;;;;10.48;8.07;;;;;;;;;;5071761;28;20423;-75
2022/01/23 16:56:55;;;;;;;10.87;7.60;;;;;;;;;;5062563;28;20419;-75
2022/01/23 16:59:21;;;;;;;12.90;8.35;;;;;;;;;;5068074;28;20499;-75
2022/01/23 17:01:47;;;;;;;13.57;9.40;;;;;;;;;;5084931;28;20418;-77
2022/01/23 17:04:16;;;;;;;13.88;10.38;;;;;;;;;;5092407;28;20409;-77
2022/01/23 17:06:42;;;;;;;13.30;9.55;;;;;;;;;;5060977;28;20421;-77
2022/01/23 17:09:09;;;;;;;14.00;10.52;;;;;;;;;;5079368;28;20435;-76
2022/01/23 17:11:39;;;;;;;11.23;9.10;;;;;;;;;;5086265;28;20417;-77
2022/01/23 17:14:05;;;;;;;10.57;8.48;;;;;;;;;;5066155;28;20418;-78
2022/01/23 17:16:31;;;;;;;10.63;8.65;;;;;;;;;;5091931;28;20426;-78
2022/01/23 17:18:57;;;;;;;12.57;8.48;;;;;;;;;;5091317;28;20491;-77
2022/01/23 17:21:23;;;;;;;8.93;7.22;;;;;;;;;;5092297;28;20498;-77
2022/01/23 17:23:50;;;;;;;10.68;7.57;;;;;;;;;;5081545;28;20770;-77
2022/01/23 17:26:17;;;;;;;8.07;5.93;;;;;;;;;;5062006;28;20422;-76
2022/01/23 17:28:43;;;;;;;10.48;6.70;;;;;;;;;;5081645;28;20421;-77
2022/01/23 17:31:09;;;;;;;9.32;7.18;;;;;;;;;;5079112;28;20418;-77
2022/01/23 17:33:35;;;;;;;9.15;7.20;;;;;;;;;;5086538;28;20418;-77
2022/01/23 17:36:01;;;;;;;9.53;7.70;;;;;;;;;;5079531;28;20503;-77
2022/01/23 17:38:28;;;;;;;9.35;7.82;;;;;;;;;;5079881;28;20438;-77
2022/01/23 17:40:54;;;;;;;13.50;10.18;;;;;;;;;;5054007;28;20414;-77
2022/01/23 17:43:20;;;;;;;14.20;11.05;;;;;;;;;;5084241;28;20418;-78
2022/01/23 17:45:53;;;;;;;10.80;7.72;;;;;;;;;;5062342;28;20402;-77
2022/01/23 17:51:06;;;;;;;10.30;8.15;;;;;;;;;;5078689;28;20426;-78
2022/01/23 17:53:33;;;;;;;17.27;13.40;;;;;;;;;;5080125;28;20762;-77
2022/01/23 17:56:00;;;;;;;15.20;10.80;;;;;;;;;;5084239;28;20943;-77